sensor_id;sensor_type;location;lat;lon;timestamp;P1;durP1;ratioP1;P2;durP2;ratioP2
4290;SDS011;2159;50.906;7.152;2023-04-01T00:00:10;1.13;;;0.67;;
4290;SDS011;2159;50.906;7.152;2023-04-01T00:02:37;1.47;;;0.60;;
4290;SDS011;2159;50.906;7.152;2023-04-01T00:05:05;1.43;;;0.90;;
4290;SDS011;2159;50.906;7.152;2023-04-01T00:07:33;2.20;;;0.80;;
4290;SDS011;2159;50.906;7.152;2023-04-01T00:10:00;0.73;;;0.60;;
4290;SDS011;2159;50.906;7.152;2023-04-01T00:12:29;1.50;;;0.60;;
4290;SDS011;2159;50.906;7.152;2023-04-01T00:14:57;2.40;;;0.60;;
4290;SDS011;2159;50.906;7.152;2023-04-01T00:17:24;1.53;;;0.70;;
4290;SDS011;2159;50.906;7.152;2023-04-01T00:19:53;0.70;;;0.60;;
4290;SDS011;2159;50.906;7.152;2023-04-01T00:22:21;1.60;;;0.50;;
4290;SDS011;2159;50.906;7.152;2023-04-01T00:24:49;0.83;;;0.53;;
4290;SDS011;2159;50.906;7.152;2023-04-01T00:27:16;1.17;;;0.70;;
4290;SDS011;2159;50.906;7.152;2023-04-01T00:29:46;0.90;;;0.70;;
4290;SDS011;2159;50.906;7.152;2023-04-01T00:32:14;0.60;;;0.60;;
4290;SDS011;2159;50.906;7.152;2023-04-01T00:34:42;1.87;;;0.70;;
4290;SDS011;2159;50.906;7.152;2023-04-01T00:37:10;0.70;;;0.50;;
4290;SDS011;2159;50.906;7.152;2023-04-01T00:39:38;0.63;;;0.63;;
4290;SDS011;2159;50.906;7.152;2023-04-01T00:42:06;0.60;;;0.60;;
4290;SDS011;2159;50.906;7.152;2023-04-01T00:44:33;0.57;;;0.50;;
4290;SDS011;2159;50.906;7.152;2023-04-01T00:47:02;0.63;;;0.63;;
4290;SDS011;2159;50.906;7.152;2023-04-01T00:49:31;0.70;;;0.70;;
4290;SDS011;2159;50.906;7.152;2023-04-01T00:52:00;1.50;;;0.80;;
4290;SDS011;2159;50.906;7.152;2023-04-01T00:54:28;0.70;;;0.53;;
4290;SDS011;2159;50.906;7.152;2023-04-01T00:56:57;0.50;;;0.50;;
4290;SDS011;2159;50.906;7.152;2023-04-01T00:59:27;0.60;;;0.50;;
4290;SDS011;2159;50.906;7.152;2023-04-01T01:01:56;0.60;;;0.60;;
4290;SDS011;2159;50.906;7.152;2023-04-01T01:04:26;0.73;;;0.60;;
4290;SDS011;2159;50.906;7.152;2023-04-01T01:06:56;0.87;;;0.50;;
4290;SDS011;2159;50.906;7.152;2023-04-01T01:09:33;1.53;;;0.50;;
4290;SDS011;2159;50.906;7.152;2023-04-01T01:12:05;0.80;;;0.50;;
4290;SDS011;2159;50.906;7.152;2023-04-01T01:14:36;0.83;;;0.60;;
4290;SDS011;2159;50.906;7.152;2023-04-01T01:17:06;1.23;;;0.70;;
4290;SDS011;2159;50.906;7.152;2023-04-01T01:19:48;0.70;;;0.60;;
4290;SDS011;2159;50.906;7.152;2023-04-01T01:22:22;1.43;;;1.07;;
4290;SDS011;2159;50.906;7.152;2023-04-01T01:25:01;0.80;;;0.50;;
4290;SDS011;2159;50.906;7.152;2023-04-01T01:27:35;0.60;;;0.60;;
4290;SDS011;2159;50.906;7.152;2023-04-01T01:30:11;1.17;;;0.70;;
4290;SDS011;2159;50.906;7.152;2023-04-01T01:32:47;0.70;;;0.67;;
4290;SDS011;2159;50.906;7.152;2023-04-01T01:35:22;0.60;;;0.40;;
4290;SDS011;2159;50.906;7.152;2023-04-01T01:37:51;0.80;;;0.50;;
4290;SDS011;2159;50.906;7.152;2023-04-01T01:40:21;1.17;;;0.67;;
4290;SDS011;2159;50.906;7.152;2023-04-01T01:42:50;0.80;;;0.60;;
4290;SDS011;2159;50.906;7.152;2023-04-01T01:45:19;0.47;;;0.47;;
4290;SDS011;2159;50.906;7.152;2023-04-01T01:47:47;0.80;;;0.50;;
4290;SDS011;2159;50.906;7.152;2023-04-01T01:50:16;0.50;;;0.50;;
4290;SDS011;2159;50.906;7.152;2023-04-01T01:52:45;0.50;;;0.50;;
4290;SDS011;2159;50.906;7.152;2023-04-01T01:55:26;0.60;;;0.40;;
4290;SDS011;2159;50.906;7.152;2023-04-01T01:57:55;0.73;;;0.50;;
4290;SDS011;2159;50.906;7.152;2023-04-01T02:00:24;0.60;;;0.50;;
4290;SDS011;2159;50.906;7.152;2023-04-01T02:02:52;0.60;;;0.60;;
4290;SDS011;2159;50.906;7.152;2023-04-01T02:05:21;0.60;;;0.60;;
4290;SDS011;2159;50.906;7.152;2023-04-01T02:07:54;1.10;;;0.50;;
4290;SDS011;2159;50.906;7.152;2023-04-01T02:10:24;0.40;;;0.40;;
4290;SDS011;2159;50.906;7.152;2023-04-01T02:12:53;0.70;;;0.50;;
4290;SDS011;2159;50.906;7.152;2023-04-01T02:15:21;0.50;;;0.50;;
4290;SDS011;2159;50.906;7.152;2023-04-01T02:17:49;0.80;;;0.60;;
4290;SDS011;2159;50.906;7.152;2023-04-01T02:20:18;0.43;;;0.43;;
4290;SDS011;2159;50.906;7.152;2023-04-01T02:22:47;0.50;;;0.50;;
4290;SDS011;2159;50.906;7.152;2023-04-01T02:25:18;0.90;;;0.50;;
4290;SDS011;2159;50.906;7.152;2023-04-01T02:27:45;1.23;;;0.67;;
4290;SDS011;2159;50.906;7.152;2023-04-01T02:30:14;0.50;;;0.50;;
4290;SDS011;2159;50.906;7.152;2023-04-01T02:32:41;0.87;;;0.50;;
4290;SDS011;2159;50.906;7.152;2023-04-01T02:35:09;2.90;;;0.50;;
4290;SDS011;2159;50.906;7.152;2023-04-01T02:37:38;0.70;;;0.50;;
4290;SDS011;2159;50.906;7.152;2023-04-01T02:40:09;0.60;;;0.60;;
4290;SDS011;2159;50.906;7.152;2023-04-01T02:42:39;2.13;;;0.50;;
4290;SDS011;2159;50.906;7.152;2023-04-01T02:45:06;0.87;;;0.50;;
4290;SDS011;2159;50.906;7.152;2023-04-01T02:47:34;0.60;;;0.50;;
4290;SDS011;2159;50.906;7.152;2023-04-01T02:50:02;1.63;;;0.50;;
4290;SDS011;2159;50.906;7.152;2023-04-01T02:52:30;0.60;;;0.50;;
4290;SDS011;2159;50.906;7.152;2023-04-01T02:54:57;0.60;;;0.60;;
4290;SDS011;2159;50.906;7.152;2023-04-01T02:57:25;1.07;;;0.60;;
4290;SDS011;2159;50.906;7.152;2023-04-01T02:59:54;0.70;;;0.60;;
4290;SDS011;2159;50.906;7.152;2023-04-01T03:02:21;1.83;;;0.60;;
4290;SDS011;2159;50.906;7.152;2023-04-01T03:04:49;0.57;;;0.40;;
4290;SDS011;2159;50.906;7.152;2023-04-01T03:07:16;0.80;;;0.60;;
4290;SDS011;2159;50.906;7.152;2023-04-01T03:09:44;1.40;;;0.50;;
4290;SDS011;2159;50.906;7.152;2023-04-01T03:12:12;1.47;;;0.50;;
4290;SDS011;2159;50.906;7.152;2023-04-01T03:14:39;0.70;;;0.57;;
4290;SDS011;2159;50.906;7.152;2023-04-01T03:17:08;0.57;;;0.57;;
4290;SDS011;2159;50.906;7.152;2023-04-01T03:19:36;1.70;;;0.50;;
4290;SDS011;2159;50.906;7.152;2023-04-01T03:22:03;0.50;;;0.50;;
4290;SDS011;2159;50.906;7.152;2023-04-01T03:24:30;0.40;;;0.40;;
4290;SDS011;2159;50.906;7.152;2023-04-01T03:26:58;0.80;;;0.50;;
4290;SDS011;2159;50.906;7.152;2023-04-01T03:29:25;0.60;;;0.60;;
4290;SDS011;2159;50.906;7.152;2023-04-01T03:31:53;0.60;;;0.60;;
4290;SDS011;2159;50.906;7.152;2023-04-01T03:34:25;0.80;;;0.80;;
4290;SDS011;2159;50.906;7.152;2023-04-01T03:36:53;0.50;;;0.50;;
4290;SDS011;2159;50.906;7.152;2023-04-01T03:39:20;1.83;;;0.50;;
4290;SDS011;2159;50.906;7.152;2023-04-01T03:41:48;1.90;;;0.50;;
4290;SDS011;2159;50.906;7.152;2023-04-01T03:44:15;0.80;;;0.50;;
4290;SDS011;2159;50.906;7.152;2023-04-01T03:46:43;0.50;;;0.50;;
4290;SDS011;2159;50.906;7.152;2023-04-01T03:49:11;0.60;;;0.50;;
4290;SDS011;2159;50.906;7.152;2023-04-01T03:51:40;0.70;;;0.60;;
4290;SDS011;2159;50.906;7.152;2023-04-01T03:54:08;1.43;;;0.60;;
4290;SDS011;2159;50.906;7.152;2023-04-01T03:56:36;0.60;;;0.60;;
4290;SDS011;2159;50.906;7.152;2023-04-01T03:59:04;0.53;;;0.53;;
4290;SDS011;2159;50.906;7.152;2023-04-01T04:01:32;0.87;;;0.87;;
4290;SDS011;2159;50.906;7.152;2023-04-01T04:04:00;0.53;;;0.53;;
4290;SDS011;2159;50.906;7.152;2023-04-01T04:06:27;0.50;;;0.50;;
4290;SDS011;2159;50.906;7.152;2023-04-01T04:08:56;0.70;;;0.47;;
4290;SDS011;2159;50.906;7.152;2023-04-01T04:11:24;1.37;;;0.60;;
4290;SDS011;2159;50.906;7.152;2023-04-01T04:13:51;0.50;;;0.47;;
4290;SDS011;2159;50.906;7.152;2023-04-01T04:16:21;0.57;;;0.57;;
4290;SDS011;2159;50.906;7.152;2023-04-01T04:18:49;0.40;;;0.40;;
4290;SDS011;2159;50.906;7.152;2023-04-01T04:21:17;0.50;;;0.50;;
4290;SDS011;2159;50.906;7.152;2023-04-01T04:23:44;1.33;;;0.50;;
4290;SDS011;2159;50.906;7.152;2023-04-01T04:26:14;0.40;;;0.40;;
4290;SDS011;2159;50.906;7.152;2023-04-01T04:28:41;1.90;;;0.50;;
4290;SDS011;2159;50.906;7.152;2023-04-01T04:31:09;0.60;;;0.60;;
4290;SDS011;2159;50.906;7.152;2023-04-01T04:33:36;2.00;;;0.80;;
4290;SDS011;2159;50.906;7.152;2023-04-01T04:36:04;0.50;;;0.50;;
4290;SDS011;2159;50.906;7.152;2023-04-01T04:38:32;0.40;;;0.40;;
4290;SDS011;2159;50.906;7.152;2023-04-01T04:40:59;0.43;;;0.43;;
4290;SDS011;2159;50.906;7.152;2023-04-01T04:43:28;0.50;;;0.40;;
4290;SDS011;2159;50.906;7.152;2023-04-01T04:45:55;2.10;;;0.50;;
4290;SDS011;2159;50.906;7.152;2023-04-01T04:48:23;0.40;;;0.40;;
4290;SDS011;2159;50.906;7.152;2023-04-01T04:50:50;0.60;;;0.50;;
4290;SDS011;2159;50.906;7.152;2023-04-01T04:53:18;2.10;;;0.60;;
4290;SDS011;2159;50.906;7.152;2023-04-01T04:55:46;0.83;;;0.47;;
4290;SDS011;2159;50.906;7.152;2023-04-01T04:58:14;0.50;;;0.50;;
4290;SDS011;2159;50.906;7.152;2023-04-01T05:00:43;1.27;;;0.60;;
4290;SDS011;2159;50.906;7.152;2023-04-01T05:03:11;1.07;;;0.97;;
4290;SDS011;2159;50.906;7.152;2023-04-01T05:05:38;0.70;;;0.70;;
4290;SDS011;2159;50.906;7.152;2023-04-01T05:08:06;1.43;;;0.53;;
4290;SDS011;2159;50.906;7.152;2023-04-01T05:10:33;0.40;;;0.40;;
4290;SDS011;2159;50.906;7.152;2023-04-01T05:13:01;0.50;;;0.50;;
4290;SDS011;2159;50.906;7.152;2023-04-01T05:15:28;1.70;;;0.60;;
4290;SDS011;2159;50.906;7.152;2023-04-01T05:17:57;3.70;;;0.60;;
4290;SDS011;2159;50.906;7.152;2023-04-01T05:20:25;1.60;;;0.50;;
4290;SDS011;2159;50.906;7.152;2023-04-01T05:22:55;0.50;;;0.50;;
4290;SDS011;2159;50.906;7.152;2023-04-01T05:25:22;1.23;;;0.50;;
4290;SDS011;2159;50.906;7.152;2023-04-01T05:27:50;0.40;;;0.40;;
4290;SDS011;2159;50.906;7.152;2023-04-01T05:30:17;1.07;;;0.50;;
4290;SDS011;2159;50.906;7.152;2023-04-01T05:32:45;0.40;;;0.40;;
4290;SDS011;2159;50.906;7.152;2023-04-01T05:35:14;1.50;;;1.27;;
4290;SDS011;2159;50.906;7.152;2023-04-01T05:37:41;1.10;;;0.50;;
4290;SDS011;2159;50.906;7.152;2023-04-01T05:40:09;0.50;;;0.40;;
4290;SDS011;2159;50.906;7.152;2023-04-01T05:42:37;1.83;;;0.50;;
4290;SDS011;2159;50.906;7.152;2023-04-01T05:45:05;1.70;;;0.60;;
4290;SDS011;2159;50.906;7.152;2023-04-01T05:47:33;1.33;;;0.50;;
4290;SDS011;2159;50.906;7.152;2023-04-01T05:50:00;0.40;;;0.40;;
4290;SDS011;2159;50.906;7.152;2023-04-01T05:52:29;2.00;;;0.50;;
4290;SDS011;2159;50.906;7.152;2023-04-01T05:54:56;1.13;;;0.50;;
4290;SDS011;2159;50.906;7.152;2023-04-01T05:57:25;2.83;;;0.60;;
4290;SDS011;2159;50.906;7.152;2023-04-01T05:59:52;2.20;;;0.60;;
4290;SDS011;2159;50.906;7.152;2023-04-01T06:02:20;0.60;;;0.57;;
4290;SDS011;2159;50.906;7.152;2023-04-01T06:04:47;0.50;;;0.50;;
4290;SDS011;2159;50.906;7.152;2023-04-01T06:07:16;0.50;;;0.50;;
4290;SDS011;2159;50.906;7.152;2023-04-01T06:09:45;0.50;;;0.50;;
4290;SDS011;2159;50.906;7.152;2023-04-01T06:12:23;1.07;;;0.63;;
4290;SDS011;2159;50.906;7.152;2023-04-01T06:14:54;1.37;;;0.70;;
4290;SDS011;2159;50.906;7.152;2023-04-01T06:17:26;0.80;;;0.70;;
4290;SDS011;2159;50.906;7.152;2023-04-01T06:19:58;0.63;;;0.50;;
4290;SDS011;2159;50.906;7.152;2023-04-01T06:22:37;0.97;;;0.60;;
4290;SDS011;2159;50.906;7.152;2023-04-01T06:25:22;0.50;;;0.50;;
4290;SDS011;2159;50.906;7.152;2023-04-01T06:27:56;0.60;;;0.50;;
4290;SDS011;2159;50.906;7.152;2023-04-01T06:30:32;1.27;;;0.53;;
4290;SDS011;2159;50.906;7.152;2023-04-01T06:33:04;0.70;;;0.70;;
4290;SDS011;2159;50.906;7.152;2023-04-01T06:35:39;0.70;;;0.70;;
4290;SDS011;2159;50.906;7.152;2023-04-01T06:38:22;0.70;;;0.70;;
4290;SDS011;2159;50.906;7.152;2023-04-01T06:43:53;1.70;;;0.80;;
4290;SDS011;2159;50.906;7.152;2023-04-01T06:46:24;3.03;;;2.33;;
4290;SDS011;2159;50.906;7.152;2023-04-01T06:49:02;1.63;;;0.90;;
4290;SDS011;2159;50.906;7.152;2023-04-01T06:51:36;0.93;;;0.70;;
4290;SDS011;2159;50.906;7.152;2023-04-01T06:54:04;0.70;;;0.70;;
4290;SDS011;2159;50.906;7.152;2023-04-01T06:56:33;1.67;;;1.00;;
4290;SDS011;2159;50.906;7.152;2023-04-01T06:59:05;1.00;;;1.00;;
4290;SDS011;2159;50.906;7.152;2023-04-01T07:01:35;1.63;;;1.53;;
4290;SDS011;2159;50.906;7.152;2023-04-01T07:04:05;1.20;;;0.90;;
4290;SDS011;2159;50.906;7.152;2023-04-01T07:06:35;3.43;;;1.07;;
4290;SDS011;2159;50.906;7.152;2023-04-01T07:09:04;1.47;;;1.10;;
4290;SDS011;2159;50.906;7.152;2023-04-01T07:11:33;1.70;;;1.23;;
4290;SDS011;2159;50.906;7.152;2023-04-01T07:14:02;1.77;;;1.30;;
4290;SDS011;2159;50.906;7.152;2023-04-01T07:16:33;1.17;;;1.17;;
4290;SDS011;2159;50.906;7.152;2023-04-01T07:19:02;1.00;;;1.00;;
4290;SDS011;2159;50.906;7.152;2023-04-01T07:21:33;1.13;;;1.13;;
4290;SDS011;2159;50.906;7.152;2023-04-01T07:24:04;1.13;;;1.13;;
4290;SDS011;2159;50.906;7.152;2023-04-01T07:26:32;1.37;;;1.27;;
4290;SDS011;2159;50.906;7.152;2023-04-01T07:28:59;1.40;;;1.30;;
4290;SDS011;2159;50.906;7.152;2023-04-01T07:31:34;2.87;;;1.33;;
4290;SDS011;2159;50.906;7.152;2023-04-01T07:34:09;1.13;;;1.13;;
4290;SDS011;2159;50.906;7.152;2023-04-01T07:36:38;1.07;;;0.93;;
4290;SDS011;2159;50.906;7.152;2023-04-01T07:39:11;1.20;;;1.20;;
4290;SDS011;2159;50.906;7.152;2023-04-01T07:41:43;1.37;;;1.20;;
4290;SDS011;2159;50.906;7.152;2023-04-01T07:44:13;5.57;;;1.10;;
4290;SDS011;2159;50.906;7.152;2023-04-01T07:46:51;0.97;;;0.97;;
4290;SDS011;2159;50.906;7.152;2023-04-01T07:49:21;2.23;;;1.87;;
4290;SDS011;2159;50.906;7.152;2023-04-01T07:51:51;2.10;;;1.10;;
4290;SDS011;2159;50.906;7.152;2023-04-01T07:54:21;1.00;;;1.00;;
4290;SDS011;2159;50.906;7.152;2023-04-01T07:56:51;1.20;;;1.20;;
4290;SDS011;2159;50.906;7.152;2023-04-01T07:59:20;1.17;;;1.17;;
4290;SDS011;2159;50.906;7.152;2023-04-01T08:01:52;1.83;;;1.10;;
4290;SDS011;2159;50.906;7.152;2023-04-01T08:04:25;1.45;;;1.35;;
4290;SDS011;2159;50.906;7.152;2023-04-01T08:06:57;2.03;;;1.20;;
4290;SDS011;2159;50.906;7.152;2023-04-01T08:09:27;2.60;;;1.17;;
4290;SDS011;2159;50.906;7.152;2023-04-01T08:12:00;1.30;;;1.20;;
4290;SDS011;2159;50.906;7.152;2023-04-01T08:14:30;1.10;;;1.10;;
4290;SDS011;2159;50.906;7.152;2023-04-01T08:17:03;1.23;;;1.20;;
4290;SDS011;2159;50.906;7.152;2023-04-01T08:19:40;1.20;;;1.20;;
4290;SDS011;2159;50.906;7.152;2023-04-01T08:22:12;1.60;;;1.30;;
4290;SDS011;2159;50.906;7.152;2023-04-01T08:24:44;1.63;;;1.50;;
4290;SDS011;2159;50.906;7.152;2023-04-01T08:27:16;2.80;;;1.50;;
4290;SDS011;2159;50.906;7.152;2023-04-01T08:29:46;1.67;;;1.43;;
4290;SDS011;2159;50.906;7.152;2023-04-01T08:32:17;1.50;;;1.40;;
4290;SDS011;2159;50.906;7.152;2023-04-01T08:34:45;1.20;;;1.20;;
4290;SDS011;2159;50.906;7.152;2023-04-01T08:37:15;1.30;;;1.30;;
4290;SDS011;2159;50.906;7.152;2023-04-01T08:39:45;1.20;;;1.10;;
4290;SDS011;2159;50.906;7.152;2023-04-01T08:45:09;1.33;;;1.23;;
4290;SDS011;2159;50.906;7.152;2023-04-01T08:47:50;1.70;;;1.60;;
4290;SDS011;2159;50.906;7.152;2023-04-01T08:53:06;6.33;;;2.43;;
4290;SDS011;2159;50.906;7.152;2023-04-01T08:55:43;1.63;;;1.53;;
4290;SDS011;2159;50.906;7.152;2023-04-01T09:01:10;1.67;;;1.57;;
4290;SDS011;2159;50.906;7.152;2023-04-01T09:03:54;1.50;;;1.40;;
4290;SDS011;2159;50.906;7.152;2023-04-01T09:06:31;1.43;;;1.33;;
4290;SDS011;2159;50.906;7.152;2023-04-01T09:09:10;1.07;;;1.07;;
4290;SDS011;2159;50.906;7.152;2023-04-01T09:11:53;1.00;;;1.00;;
4290;SDS011;2159;50.906;7.152;2023-04-01T09:14:31;1.30;;;1.30;;
4290;SDS011;2159;50.906;7.152;2023-04-01T09:19:59;1.33;;;1.30;;
4290;SDS011;2159;50.906;7.152;2023-04-01T09:22:35;1.20;;;1.20;;
4290;SDS011;2159;50.906;7.152;2023-04-01T09:25:16;1.43;;;1.33;;
4290;SDS011;2159;50.906;7.152;2023-04-01T09:27:51;1.40;;;1.30;;
4290;SDS011;2159;50.906;7.152;2023-04-01T09:33:36;1.30;;;1.20;;
4290;SDS011;2159;50.906;7.152;2023-04-01T09:36:21;1.10;;;1.10;;
4290;SDS011;2159;50.906;7.152;2023-04-01T09:38:56;1.20;;;1.20;;
4290;SDS011;2159;50.906;7.152;2023-04-01T09:41:29;1.60;;;1.50;;
4290;SDS011;2159;50.906;7.152;2023-04-01T09:44:03;1.20;;;1.20;;
4290;SDS011;2159;50.906;7.152;2023-04-01T09:52:13;2.10;;;1.23;;
4290;SDS011;2159;50.906;7.152;2023-04-01T09:54:55;1.90;;;1.10;;
4290;SDS011;2159;50.906;7.152;2023-04-01T10:00:27;1.63;;;1.53;;
4290;SDS011;2159;50.906;7.152;2023-04-01T10:03:13;1.30;;;1.30;;
4290;SDS011;2159;50.906;7.152;2023-04-01T10:09:01;1.30;;;1.27;;
4290;SDS011;2159;50.906;7.152;2023-04-01T10:11:39;1.67;;;1.40;;
4290;SDS011;2159;50.906;7.152;2023-04-01T10:14:23;2.03;;;1.50;;
4290;SDS011;2159;50.906;7.152;2023-04-01T10:17:00;2.00;;;1.30;;
4290;SDS011;2159;50.906;7.152;2023-04-01T10:22:17;1.20;;;1.10;;
4290;SDS011;2159;50.906;7.152;2023-04-01T10:25:16;1.23;;;1.23;;
4290;SDS011;2159;50.906;7.152;2023-04-01T10:30:35;1.10;;;1.10;;
4290;SDS011;2159;50.906;7.152;2023-04-01T10:33:24;1.37;;;1.27;;
4290;SDS011;2159;50.906;7.152;2023-04-01T10:36:00;1.43;;;1.33;;
4290;SDS011;2159;50.906;7.152;2023-04-01T10:38:44;1.27;;;1.13;;
4290;SDS011;2159;50.906;7.152;2023-04-01T10:41:26;1.40;;;1.40;;
4290;SDS011;2159;50.906;7.152;2023-04-01T10:44:11;1.30;;;1.20;;
4290;SDS011;2159;50.906;7.152;2023-04-01T10:49:41;1.90;;;1.80;;
4290;SDS011;2159;50.906;7.152;2023-04-01T10:52:22;2.50;;;1.10;;
4290;SDS011;2159;50.906;7.152;2023-04-01T10:54:55;2.10;;;1.27;;
4290;SDS011;2159;50.906;7.152;2023-04-01T11:00:27;1.30;;;1.30;;
4290;SDS011;2159;50.906;7.152;2023-04-01T11:05:55;1.33;;;1.23;;
4290;SDS011;2159;50.906;7.152;2023-04-01T11:08:44;1.43;;;1.33;;
4290;SDS011;2159;50.906;7.152;2023-04-01T11:16:47;1.33;;;1.33;;
4290;SDS011;2159;50.906;7.152;2023-04-01T11:22:24;1.03;;;1.03;;
4290;SDS011;2159;50.906;7.152;2023-04-01T11:30:33;1.30;;;1.30;;
4290;SDS011;2159;50.906;7.152;2023-04-01T11:33:08;1.33;;;1.33;;
4290;SDS011;2159;50.906;7.152;2023-04-01T11:35:52;1.83;;;1.73;;
4290;SDS011;2159;50.906;7.152;2023-04-01T11:38:30;1.00;;;1.00;;
4290;SDS011;2159;50.906;7.152;2023-04-01T11:41:00;1.27;;;1.27;;
4290;SDS011;2159;50.906;7.152;2023-04-01T11:43:32;0.90;;;0.90;;
4290;SDS011;2159;50.906;7.152;2023-04-01T11:46:03;1.00;;;1.00;;
4290;SDS011;2159;50.906;7.152;2023-04-01T11:48:42;0.90;;;0.90;;
4290;SDS011;2159;50.906;7.152;2023-04-01T11:51:19;0.90;;;0.90;;
4290;SDS011;2159;50.906;7.152;2023-04-01T11:53:52;1.20;;;1.20;;
4290;SDS011;2159;50.906;7.152;2023-04-01T11:56:27;0.90;;;0.90;;
4290;SDS011;2159;50.906;7.152;2023-04-01T11:59:06;1.20;;;1.20;;
4290;SDS011;2159;50.906;7.152;2023-04-01T12:01:43;1.00;;;1.00;;
4290;SDS011;2159;50.906;7.152;2023-04-01T12:04:22;1.10;;;1.10;;
4290;SDS011;2159;50.906;7.152;2023-04-01T12:06:54;1.00;;;1.00;;
4290;SDS011;2159;50.906;7.152;2023-04-01T12:09:28;1.00;;;1.00;;
4290;SDS011;2159;50.906;7.152;2023-04-01T12:12:00;1.20;;;1.20;;
4290;SDS011;2159;50.906;7.152;2023-04-01T12:14:32;1.43;;;1.40;;
4290;SDS011;2159;50.906;7.152;2023-04-01T12:17:05;1.37;;;1.37;;
4290;SDS011;2159;50.906;7.152;2023-04-01T12:19:41;1.30;;;1.30;;
4290;SDS011;2159;50.906;7.152;2023-04-01T12:22:19;1.20;;;1.20;;
4290;SDS011;2159;50.906;7.152;2023-04-01T12:24:49;1.30;;;1.30;;
4290;SDS011;2159;50.906;7.152;2023-04-01T12:33:18;1.10;;;1.10;;
4290;SDS011;2159;50.906;7.152;2023-04-01T12:35:58;1.17;;;1.17;;
4290;SDS011;2159;50.906;7.152;2023-04-01T12:38:31;1.10;;;1.10;;
4290;SDS011;2159;50.906;7.152;2023-04-01T12:41:09;1.00;;;1.00;;
4290;SDS011;2159;50.906;7.152;2023-04-01T12:43:52;1.30;;;1.20;;
4290;SDS011;2159;50.906;7.152;2023-04-01T12:46:24;1.27;;;1.17;;
4290;SDS011;2159;50.906;7.152;2023-04-01T12:49:14;1.30;;;1.30;;
4290;SDS011;2159;50.906;7.152;2023-04-01T12:54:42;1.17;;;1.17;;
4290;SDS011;2159;50.906;7.152;2023-04-01T12:57:20;1.20;;;1.20;;
4290;SDS011;2159;50.906;7.152;2023-04-01T12:59:57;1.10;;;1.10;;
4290;SDS011;2159;50.906;7.152;2023-04-01T13:02:33;1.17;;;1.17;;
4290;SDS011;2159;50.906;7.152;2023-04-01T13:05:15;1.60;;;1.60;;
4290;SDS011;2159;50.906;7.152;2023-04-01T13:07:51;1.67;;;1.40;;
4290;SDS011;2159;50.906;7.152;2023-04-01T13:10:27;1.33;;;1.33;;
4290;SDS011;2159;50.906;7.152;2023-04-01T13:13:01;1.20;;;1.20;;
4290;SDS011;2159;50.906;7.152;2023-04-01T13:15:33;0.90;;;0.90;;
4290;SDS011;2159;50.906;7.152;2023-04-01T13:18:07;1.10;;;1.10;;
4290;SDS011;2159;50.906;7.152;2023-04-01T13:20:43;1.00;;;1.00;;
4290;SDS011;2159;50.906;7.152;2023-04-01T13:23:24;1.00;;;1.00;;
4290;SDS011;2159;50.906;7.152;2023-04-01T13:25:59;1.27;;;1.27;;
4290;SDS011;2159;50.906;7.152;2023-04-01T13:28:39;1.60;;;1.50;;
4290;SDS011;2159;50.906;7.152;2023-04-01T13:31:09;1.30;;;1.20;;
4290;SDS011;2159;50.906;7.152;2023-04-01T13:33:41;1.57;;;1.47;;
4290;SDS011;2159;50.906;7.152;2023-04-01T13:36:16;1.20;;;1.20;;
4290;SDS011;2159;50.906;7.152;2023-04-01T13:39:06;1.30;;;1.30;;
4290;SDS011;2159;50.906;7.152;2023-04-01T13:41:41;1.33;;;1.33;;
4290;SDS011;2159;50.906;7.152;2023-04-01T13:44:14;1.20;;;1.20;;
4290;SDS011;2159;50.906;7.152;2023-04-01T13:46:54;1.27;;;1.27;;
4290;SDS011;2159;50.906;7.152;2023-04-01T13:49:35;1.20;;;1.20;;
4290;SDS011;2159;50.906;7.152;2023-04-01T13:52:16;2.43;;;1.10;;
4290;SDS011;2159;50.906;7.152;2023-04-01T13:57:47;1.37;;;1.37;;
4290;SDS011;2159;50.906;7.152;2023-04-01T14:03:16;1.47;;;1.47;;
4290;SDS011;2159;50.906;7.152;2023-04-01T14:05:53;1.70;;;1.70;;
4290;SDS011;2159;50.906;7.152;2023-04-01T14:11:13;1.50;;;1.50;;
4290;SDS011;2159;50.906;7.152;2023-04-01T14:13:47;1.60;;;1.53;;
4290;SDS011;2159;50.906;7.152;2023-04-01T14:16:25;1.60;;;1.60;;
4290;SDS011;2159;50.906;7.152;2023-04-01T14:19:03;1.50;;;1.50;;
4290;SDS011;2159;50.906;7.152;2023-04-01T14:21:37;1.60;;;1.60;;
4290;SDS011;2159;50.906;7.152;2023-04-01T14:29:36;3.93;;;1.47;;
4290;SDS011;2159;50.906;7.152;2023-04-01T14:32:07;1.97;;;1.87;;
4290;SDS011;2159;50.906;7.152;2023-04-01T14:34:44;1.67;;;1.67;;
4290;SDS011;2159;50.906;7.152;2023-04-01T14:37:20;1.90;;;1.80;;
4290;SDS011;2159;50.906;7.152;2023-04-01T14:40:04;1.83;;;1.80;;
4290;SDS011;2159;50.906;7.152;2023-04-01T14:45:29;1.90;;;1.80;;
4290;SDS011;2159;50.906;7.152;2023-04-01T14:48:05;2.00;;;1.90;;
4290;SDS011;2159;50.906;7.152;2023-04-01T14:50:41;2.10;;;2.00;;
4290;SDS011;2159;50.906;7.152;2023-04-01T14:53:11;1.60;;;1.50;;
4290;SDS011;2159;50.906;7.152;2023-04-01T14:55:46;1.73;;;1.73;;
4290;SDS011;2159;50.906;7.152;2023-04-01T14:58:16;1.50;;;1.50;;
4290;SDS011;2159;50.906;7.152;2023-04-01T15:00:50;1.60;;;1.50;;
4290;SDS011;2159;50.906;7.152;2023-04-01T15:03:24;1.97;;;1.87;;
4290;SDS011;2159;50.906;7.152;2023-04-01T15:05:55;1.40;;;1.40;;
4290;SDS011;2159;50.906;7.152;2023-04-01T15:08:24;1.53;;;1.53;;
4290;SDS011;2159;50.906;7.152;2023-04-01T15:13:52;5.70;;;2.00;;
4290;SDS011;2159;50.906;7.152;2023-04-01T15:16:27;1.37;;;1.37;;
4290;SDS011;2159;50.906;7.152;2023-04-01T15:19:00;1.70;;;1.60;;
4290;SDS011;2159;50.906;7.152;2023-04-01T15:21:41;1.83;;;1.77;;
4290;SDS011;2159;50.906;7.152;2023-04-01T15:24:13;1.70;;;1.70;;
4290;SDS011;2159;50.906;7.152;2023-04-01T15:26:47;1.73;;;1.63;;
4290;SDS011;2159;50.906;7.152;2023-04-01T15:29:25;1.93;;;1.83;;
4290;SDS011;2159;50.906;7.152;2023-04-01T15:31:57;1.70;;;1.60;;
4290;SDS011;2159;50.906;7.152;2023-04-01T15:34:31;2.20;;;1.90;;
4290;SDS011;2159;50.906;7.152;2023-04-01T15:37:00;1.60;;;1.60;;
4290;SDS011;2159;50.906;7.152;2023-04-01T15:39:35;1.70;;;1.60;;
4290;SDS011;2159;50.906;7.152;2023-04-01T15:42:16;1.50;;;1.50;;
4290;SDS011;2159;50.906;7.152;2023-04-01T15:44:50;1.70;;;1.70;;
4290;SDS011;2159;50.906;7.152;2023-04-01T15:47:29;2.73;;;1.70;;
4290;SDS011;2159;50.906;7.152;2023-04-01T15:50:03;1.77;;;1.67;;
4290;SDS011;2159;50.906;7.152;2023-04-01T15:52:36;2.60;;;2.20;;
4290;SDS011;2159;50.906;7.152;2023-04-01T15:55:14;2.40;;;2.30;;
4290;SDS011;2159;50.906;7.152;2023-04-01T15:57:47;1.90;;;1.80;;
4290;SDS011;2159;50.906;7.152;2023-04-01T16:00:21;2.10;;;2.00;;
4290;SDS011;2159;50.906;7.152;2023-04-01T16:02:52;2.20;;;2.00;;
4290;SDS011;2159;50.906;7.152;2023-04-01T16:05:25;1.90;;;1.90;;
4290;SDS011;2159;50.906;7.152;2023-04-01T16:07:59;2.40;;;2.30;;
4290;SDS011;2159;50.906;7.152;2023-04-01T16:10:35;2.20;;;2.10;;
4290;SDS011;2159;50.906;7.152;2023-04-01T16:13:13;2.57;;;2.37;;
4290;SDS011;2159;50.906;7.152;2023-04-01T16:15:49;2.37;;;2.27;;
4290;SDS011;2159;50.906;7.152;2023-04-01T16:18:26;2.37;;;2.20;;
4290;SDS011;2159;50.906;7.152;2023-04-01T16:21:01;2.30;;;2.20;;
4290;SDS011;2159;50.906;7.152;2023-04-01T16:23:34;1.97;;;1.87;;
4290;SDS011;2159;50.906;7.152;2023-04-01T16:26:05;2.23;;;2.13;;
4290;SDS011;2159;50.906;7.152;2023-04-01T16:28:36;2.13;;;2.03;;
4290;SDS011;2159;50.906;7.152;2023-04-01T16:31:08;2.90;;;2.80;;
4290;SDS011;2159;50.906;7.152;2023-04-01T16:33:44;2.20;;;2.10;;
4290;SDS011;2159;50.906;7.152;2023-04-01T16:36:20;2.00;;;1.90;;
4290;SDS011;2159;50.906;7.152;2023-04-01T16:38:50;2.23;;;2.13;;
4290;SDS011;2159;50.906;7.152;2023-04-01T16:41:20;2.60;;;2.50;;
4290;SDS011;2159;50.906;7.152;2023-04-01T16:43:52;2.73;;;2.60;;
4290;SDS011;2159;50.906;7.152;2023-04-01T16:46:26;2.80;;;2.60;;
4290;SDS011;2159;50.906;7.152;2023-04-01T16:49:00;2.73;;;2.53;;
4290;SDS011;2159;50.906;7.152;2023-04-01T16:51:32;2.63;;;2.43;;
4290;SDS011;2159;50.906;7.152;2023-04-01T16:54:04;2.30;;;2.20;;
4290;SDS011;2159;50.906;7.152;2023-04-01T16:56:38;2.93;;;2.73;;
4290;SDS011;2159;50.906;7.152;2023-04-01T16:59:07;3.20;;;3.00;;
4290;SDS011;2159;50.906;7.152;2023-04-01T17:01:43;3.90;;;3.50;;
4290;SDS011;2159;50.906;7.152;2023-04-01T17:04:16;3.00;;;2.80;;
4290;SDS011;2159;50.906;7.152;2023-04-01T17:06:48;2.90;;;2.57;;
4290;SDS011;2159;50.906;7.152;2023-04-01T17:09:20;2.37;;;2.27;;
4290;SDS011;2159;50.906;7.152;2023-04-01T17:11:53;2.60;;;2.40;;